createdAt,value
2023-05-10T00:03:10.742Z,105
2023-05-10T00:04:10.925Z,105
2023-05-10T00:05:10.995Z,105
2023-05-10T00:06:10.950Z,105
2023-05-10T00:07:11.183Z,105
2023-05-10T00:08:10.511Z,105
2023-05-10T00:09:10.731Z,105
2023-05-10T00:12:09.441Z,105
2023-05-10T00:13:10.635Z,105
2023-05-10T00:14:10.679Z,105
2023-05-10T00:15:11.001Z,105
2023-05-10T00:16:11.301Z,105
2023-05-10T00:17:10.355Z,105
2023-05-10T00:18:10.803Z,105
2023-05-10T00:19:10.948Z,105
2023-05-10T00:20:10.982Z,105
2023-05-10T00:21:10.718Z,105
2023-05-10T00:22:11.115Z,105
2023-05-10T00:23:11.201Z,105
2023-05-10T00:24:10.517Z,105
2023-05-10T00:25:10.683Z,105
2023-05-10T00:26:10.916Z,105
2023-05-10T00:27:11.032Z,105
2023-05-10T00:28:10.562Z,105
2023-05-10T00:29:10.732Z,105
2023-05-10T00:30:11.029Z,105
2023-05-10T00:31:10.993Z,105
2023-05-10T00:32:11.293Z,105
2023-05-10T00:38:09.870Z,105
2023-05-10T00:39:11.250Z,105
2023-05-10T00:40:10.321Z,105
2023-05-10T00:41:09.709Z,105
2023-05-10T00:42:10.938Z,105
2023-05-10T00:43:11.345Z,105
2023-05-10T00:48:10.441Z,105
2023-05-10T00:49:10.136Z,105
2023-05-10T00:50:10.930Z,105
2023-05-10T00:51:11.179Z,105
2023-05-10T00:56:10.300Z,105
2023-05-10T00:57:10.990Z,105
2023-05-10T00:59:11.356Z,105
2023-05-10T01:00:10.340Z,105
2023-05-10T01:01:10.819Z,105
2023-05-10T01:02:11.018Z,105
2023-05-10T01:03:11.705Z,105
2023-05-10T01:04:10.135Z,105
2023-05-10T01:05:10.730Z,105
2023-05-10T01:06:11.008Z,105
2023-05-10T01:10:10.355Z,106
2023-05-10T01:11:10.600Z,106
2023-05-10T01:12:11.288Z,106
2023-05-10T01:13:11.266Z,106
2023-05-10T01:14:10.483Z,106
2023-05-10T01:15:10.751Z,106
2023-05-10T01:16:11.080Z,106
2023-05-10T01:17:10.931Z,106
2023-05-10T01:18:11.249Z,106
2023-05-10T01:19:11.382Z,106
2023-05-10T01:20:10.872Z,106
2023-05-10T01:21:10.969Z,106
2023-05-10T01:22:11.132Z,106
2023-05-10T01:27:10.362Z,106
2023-05-10T01:28:10.754Z,106
2023-05-10T01:29:11.051Z,106
2023-05-10T01:30:26.596Z,106
2023-05-10T01:32:10.829Z,106
2023-05-10T01:33:11.023Z,106
2023-05-10T01:34:11.032Z,106
2023-05-10T01:35:11.167Z,106
2023-05-10T01:36:10.227Z,106
2023-05-10T01:39:10.718Z,106
2023-05-10T01:40:11.029Z,106
2023-05-10T01:41:10.346Z,106
2023-05-10T01:42:10.658Z,106
2023-05-10T01:43:10.721Z,106
2023-05-10T01:44:11.210Z,106
2023-05-10T01:45:10.462Z,106
2023-05-10T01:46:10.654Z,106
2023-05-10T01:47:11.007Z,106
2023-05-10T01:48:11.564Z,106
2023-05-10T01:49:10.309Z,106
2023-05-10T01:50:10.719Z,106
2023-05-10T01:51:11.215Z,106
2023-05-10T01:52:10.462Z,106
2023-05-10T01:53:10.977Z,106
2023-05-10T01:54:10.884Z,106
2023-05-10T01:55:11.332Z,106
2023-05-10T01:58:11.170Z,106
2023-05-10T01:59:11.251Z,106
2023-05-10T02:02:11.069Z,106
2023-05-10T02:03:11.055Z,106
2023-05-10T02:04:10.814Z,106
2023-05-10T02:05:10.966Z,106
2023-05-10T02:08:10.852Z,104
2023-05-10T02:09:10.063Z,104
2023-05-10T02:10:10.623Z,104
2023-05-10T02:11:10.622Z,104
2023-05-10T02:12:10.904Z,104
2023-05-10T02:13:11.366Z,104
2023-05-10T02:14:10.350Z,104
2023-05-10T02:15:10.880Z,104
2023-05-10T02:16:11.077Z,104
2023-05-10T02:17:10.869Z,104
2023-05-10T02:18:11.575Z,104
2023-05-10T02:23:10.910Z,104
2023-05-10T02:24:11.062Z,104
2023-05-10T02:25:11.412Z,104
2023-05-10T02:26:10.625Z,104
2023-05-10T02:27:10.896Z,104
2023-05-10T02:28:11.088Z,104
2023-05-10T02:29:10.463Z,104
2023-05-10T02:30:09.607Z,104
2023-05-10T02:31:10.930Z,104
2023-05-10T02:32:11.529Z,104
2023-05-10T02:33:10.324Z,104
2023-05-10T02:34:10.288Z,104
2023-05-10T02:35:10.963Z,104
2023-05-10T02:39:10.982Z,104
2023-05-10T02:41:11.119Z,104
2023-05-10T02:42:11.022Z,104
2023-05-10T02:43:10.567Z,104
2023-05-10T02:44:10.889Z,104
2023-05-10T02:45:10.914Z,104
2023-05-10T02:46:10.557Z,104
2023-05-10T02:47:10.691Z,104
2023-05-10T02:48:11.259Z,104
2023-05-10T02:51:10.932Z,104
2023-05-10T02:52:11.309Z,104
2023-05-10T02:53:10.204Z,104
2023-05-10T02:54:10.890Z,104
2023-05-10T02:55:10.546Z,104
2023-05-10T02:56:10.642Z,104
2023-05-10T02:57:11.027Z,104
2023-05-10T02:58:10.995Z,104
2023-05-10T02:59:09.868Z,104
2023-05-10T03:00:11.308Z,104
2023-05-10T03:01:10.440Z,104
2023-05-10T03:02:10.709Z,104
2023-05-10T03:03:11.087Z,104
2023-05-10T03:04:11.270Z,104
2023-05-10T03:07:10.401Z,106
2023-05-10T03:08:11.179Z,106
2023-05-10T03:09:10.437Z,106
2023-05-10T03:10:10.961Z,106
2023-05-10T03:11:11.118Z,106
2023-05-10T03:14:10.958Z,106
2023-05-10T03:15:11.333Z,106
2023-05-10T03:16:10.794Z,106
2023-05-10T03:17:10.507Z,106
2023-05-10T03:18:10.997Z,106
2023-05-10T03:19:11.016Z,106
2023-05-10T03:22:10.520Z,106
2023-05-10T03:23:09.500Z,106
2023-05-10T03:24:10.792Z,106
2023-05-10T03:25:11.037Z,106
2023-05-10T03:26:11.034Z,106
2023-05-10T03:27:11.303Z,106
2023-05-10T03:32:11.217Z,106
2023-05-10T03:33:10.782Z,106
2023-05-10T03:34:10.982Z,106
2023-05-10T03:35:11.050Z,106
2023-05-10T03:36:10.625Z,106
2023-05-10T03:37:10.814Z,106
2023-05-10T03:38:11.225Z,106
2023-05-10T03:39:10.452Z,106
2023-05-10T03:40:10.705Z,106
2023-05-10T03:41:10.481Z,106
2023-05-10T03:42:10.885Z,106
2023-05-10T03:43:11.001Z,106
2023-05-10T03:44:10.352Z,106
2023-05-10T03:45:10.361Z,106
2023-05-10T03:46:10.972Z,106
2023-05-10T03:47:11.448Z,106
2023-05-10T03:49:10.504Z,106
2023-05-10T03:50:11.307Z,106
2023-05-10T03:51:11.177Z,106
2023-05-10T03:52:11.223Z,106
2023-05-10T03:53:10.452Z,106
2023-05-10T03:54:10.702Z,106
2023-05-10T03:55:09.775Z,106
2023-05-10T03:56:11.115Z,106
2023-05-10T03:57:11.037Z,106
2023-05-10T03:58:10.231Z,106
2023-05-10T03:59:10.796Z,106
2023-05-10T04:00:10.946Z,106
2023-05-10T04:01:10.996Z,106
2023-05-10T04:02:11.468Z,106
2023-05-10T04:03:10.391Z,106
2023-05-10T04:04:10.910Z,106
2023-05-10T04:07:10.979Z,110
2023-05-10T04:08:11.168Z,110
2023-05-10T04:09:10.536Z,110
2023-05-10T04:10:10.970Z,110
2023-05-10T04:11:10.816Z,110
2023-05-10T04:12:13.350Z,110
2023-05-10T04:13:11.010Z,110
2023-05-10T04:14:11.218Z,110
2023-05-10T04:15:10.392Z,110
2023-05-10T04:16:09.517Z,110
2023-05-10T04:17:11.299Z,110
2023-05-10T04:18:13.295Z,110
2023-05-10T04:19:09.261Z,110
2023-05-10T04:20:10.654Z,110
2023-05-10T04:21:11.172Z,110
2023-05-10T04:24:10.515Z,110
2023-05-10T04:25:11.055Z,110
2023-05-10T04:26:10.727Z,110
2023-05-10T04:27:11.129Z,110
2023-05-10T04:28:10.124Z,110
2023-05-10T04:29:10.799Z,110
2023-05-10T04:30:11.080Z,110
2023-05-10T04:31:11.326Z,110
2023-05-10T04:35:11.065Z,110
2023-05-10T04:40:10.546Z,110
2023-05-10T04:41:10.983Z,110
2023-05-10T04:42:11.041Z,110
2023-05-10T04:43:10.205Z,110
2023-05-10T04:44:10.675Z,110
2023-05-10T04:45:10.958Z,110
2023-05-10T04:46:10.725Z,110
2023-05-10T04:47:13.395Z,110
2023-05-10T04:48:10.773Z,110
2023-05-10T04:49:11.005Z,110
2023-05-10T04:51:09.754Z,110
2023-05-10T04:52:10.852Z,110
2023-05-10T04:53:10.740Z,110
2023-05-10T04:54:11.257Z,110
2023-05-10T04:55:11.072Z,110
2023-05-10T04:58:10.578Z,110
2023-05-10T04:59:10.994Z,110
2023-05-10T05:00:11.134Z,110
2023-05-10T05:01:10.536Z,110
2023-05-10T05:02:11.355Z,110
2023-05-10T05:03:11.538Z,110
2023-05-10T05:04:10.235Z,110
2023-05-10T05:05:10.845Z,110
2023-05-10T05:06:11.070Z,110
2023-05-10T05:07:11.175Z,116
2023-05-10T05:08:10.541Z,116
2023-05-10T05:09:10.842Z,116
2023-05-10T05:10:11.024Z,116
2023-05-10T05:11:11.122Z,116
2023-05-10T05:12:10.009Z,116
2023-05-10T05:13:10.712Z,116
2023-05-10T05:14:10.705Z,116
2023-05-10T05:15:13.931Z,116
2023-05-10T05:17:10.156Z,116
2023-05-10T05:18:11.701Z,116
2023-05-10T05:19:10.976Z,116
2023-05-10T05:23:10.418Z,116
2023-05-10T05:24:10.993Z,116
2023-05-10T05:25:11.184Z,116
2023-05-10T05:26:10.364Z,116
2023-05-10T05:27:10.588Z,116
2023-05-10T05:28:10.934Z,116
2023-05-10T05:29:10.757Z,116
2023-05-10T05:30:10.347Z,116
2023-05-10T05:31:11.256Z,116
2023-05-10T05:34:10.495Z,116
2023-05-10T05:35:10.776Z,116
2023-05-10T05:36:10.804Z,116
2023-05-10T05:37:10.723Z,116
2023-05-10T05:38:11.227Z,116
2023-05-10T05:43:10.617Z,116
2023-05-10T05:44:10.959Z,116
2023-05-10T05:45:11.229Z,116
2023-05-10T05:46:11.715Z,116
2023-05-10T05:47:09.655Z,116
2023-05-10T05:48:10.979Z,116
2023-05-10T05:49:10.992Z,116
2023-05-10T05:50:11.077Z,116
2023-05-10T05:51:13.575Z,116
2023-05-10T05:52:10.529Z,116
2023-05-10T05:53:10.911Z,116
2023-05-10T05:54:10.942Z,116
2023-05-10T05:55:11.066Z,116
2023-05-10T05:56:11.129Z,116
2023-05-10T05:57:10.123Z,116
2023-05-10T05:58:10.296Z,116
2023-05-10T05:59:10.596Z,116
2023-05-10T06:00:11.163Z,116
2023-05-10T06:02:10.566Z,116
2023-05-10T06:03:11.177Z,116
2023-05-10T06:04:11.854Z,116
2023-05-10T06:05:10.574Z,116
2023-05-10T06:06:10.950Z,116
2023-05-10T06:07:11.283Z,114
2023-05-10T06:08:10.250Z,114
2023-05-10T06:09:10.619Z,114
2023-05-10T06:10:11.258Z,114
2023-05-10T06:11:10.750Z,114
2023-05-10T06:12:10.945Z,114
2023-05-10T06:13:11.530Z,114
2023-05-10T06:14:10.353Z,114
2023-05-10T06:15:10.697Z,114
2023-05-10T06:16:11.153Z,114
2023-05-10T06:17:11.529Z,114
2023-05-10T06:18:10.740Z,114
2023-05-10T06:19:10.901Z,114
2023-05-10T06:22:10.533Z,114
2023-05-10T06:23:10.950Z,114
2023-05-10T06:24:11.065Z,114
2023-05-10T06:25:10.425Z,114
2023-05-10T06:26:10.630Z,114
2023-05-10T06:27:11.033Z,114
2023-05-10T06:28:11.150Z,114
2023-05-10T06:29:11.309Z,114
2023-05-10T06:30:19.460Z,114
2023-05-10T06:32:11.154Z,114
2023-05-10T06:33:11.089Z,114
2023-05-10T06:34:10.670Z,114
2023-05-10T06:35:10.909Z,114
2023-05-10T06:36:10.999Z,114
2023-05-10T06:39:10.499Z,114
2023-05-10T06:40:10.910Z,114
2023-05-10T06:41:11.036Z,114
2023-05-10T06:42:10.646Z,114
2023-05-10T06:43:09.357Z,114
2023-05-10T06:44:10.896Z,114
2023-05-10T06:45:11.001Z,114
2023-05-10T06:46:11.266Z,114
2023-05-10T06:47:10.412Z,114
2023-05-10T06:48:11.191Z,114
2023-05-10T06:49:10.927Z,114
2023-05-10T06:50:10.516Z,114
2023-05-10T06:51:10.726Z,114
2023-05-10T06:54:10.418Z,114
2023-05-10T06:55:10.514Z,114
2023-05-10T06:56:11.022Z,114
2023-05-10T06:57:34.157Z,114
2023-05-10T06:59:11.094Z,114
2023-05-10T07:00:10.677Z,114
2023-05-10T07:01:11.117Z,114
2023-05-10T07:02:10.626Z,114
2023-05-10T07:03:10.746Z,114
2023-05-10T07:04:11.289Z,114
2023-05-10T07:05:10.476Z,114
2023-05-10T07:06:29.773Z,114
2023-05-10T07:07:10.433Z,114
2023-05-10T07:08:10.737Z,114
2023-05-10T07:09:11.326Z,114
2023-05-10T07:10:10.829Z,114
2023-05-10T07:11:10.905Z,114
2023-05-10T07:12:15.782Z,114
2023-05-10T07:13:11.297Z,114
2023-05-10T07:14:10.440Z,114
2023-05-10T07:15:10.539Z,114
2023-05-10T07:16:11.136Z,114
2023-05-10T07:17:11.295Z,114
2023-05-10T07:18:11.881Z,114
2023-05-10T07:19:10.408Z,114
2023-05-10T07:20:10.684Z,114
2023-05-10T07:21:11.381Z,114
2023-05-10T07:22:10.267Z,114
2023-05-10T07:23:10.569Z,114
2023-05-10T07:24:10.978Z,114
2023-05-10T07:25:11.144Z,114
2023-05-10T07:26:10.415Z,114
2023-05-10T07:27:11.092Z,114
2023-05-10T07:28:10.346Z,114
2023-05-10T07:29:10.913Z,114
2023-05-10T07:30:10.942Z,114
2023-05-10T07:31:11.272Z,114
2023-05-10T07:32:10.460Z,114
2023-05-10T07:33:10.580Z,114
2023-05-10T07:34:11.063Z,114
2023-05-10T07:35:10.208Z,114
2023-05-10T07:36:09.382Z,114
2023-05-10T07:37:10.561Z,114
2023-05-10T07:38:10.925Z,114
2023-05-10T07:39:12.698Z,114
2023-05-10T07:41:11.036Z,114
2023-05-10T07:42:11.013Z,114
2023-05-10T07:43:11.169Z,114
2023-05-10T07:44:10.209Z,114
2023-05-10T07:45:10.968Z,114
2023-05-10T07:46:10.579Z,114
2023-05-10T07:47:10.620Z,114
2023-05-10T07:48:10.817Z,114
2023-05-10T07:49:10.977Z,114
2023-05-10T07:50:11.119Z,114
2023-05-10T07:51:10.405Z,114
2023-05-10T07:52:10.596Z,114
2023-05-10T07:53:11.880Z,114
2023-05-10T07:54:10.623Z,114
2023-05-10T07:55:11.065Z,114
2023-05-10T07:56:10.837Z,114
2023-05-10T07:57:10.850Z,114
2023-05-10T07:58:11.148Z,114
2023-05-10T07:59:13.010Z,114
2023-05-10T08:01:10.488Z,114
2023-05-10T08:02:10.877Z,114
2023-05-10T08:03:10.961Z,114
2023-05-10T08:04:11.820Z,114
2023-05-10T08:06:10.456Z,114
2023-05-10T08:07:10.629Z,118
2023-05-10T08:08:10.594Z,118
2023-05-10T08:09:10.263Z,118
2023-05-10T08:10:10.966Z,118
2023-05-10T08:11:11.180Z,118
2023-05-10T08:16:11.087Z,118
2023-05-10T08:17:10.445Z,118
2023-05-10T08:18:11.369Z,118
2023-05-10T08:19:10.921Z,118
2023-05-10T08:20:10.582Z,118
2023-05-10T08:21:10.985Z,118
2023-05-10T08:24:10.341Z,118
2023-05-10T08:25:10.412Z,118
2023-05-10T08:26:10.282Z,118
2023-05-10T08:27:11.023Z,118
2023-05-10T08:28:12.129Z,118
2023-05-10T08:31:11.326Z,118
2023-05-10T08:32:11.140Z,118
2023-05-10T08:36:10.643Z,118
2023-05-10T08:37:11.226Z,118
2023-05-10T08:38:10.535Z,118
2023-05-10T08:39:31.408Z,118
2023-05-10T08:41:11.460Z,118
2023-05-10T08:42:10.420Z,118
2023-05-10T08:43:10.594Z,118
2023-05-10T08:44:10.751Z,118
2023-05-10T08:45:11.089Z,118
2023-05-10T08:46:11.466Z,118
2023-05-10T08:47:10.797Z,118
2023-05-10T08:48:10.907Z,118
2023-05-10T08:49:10.998Z,118
2023-05-10T08:50:10.702Z,118
2023-05-10T08:51:11.050Z,118
2023-05-10T08:52:10.461Z,118
2023-05-10T08:53:10.605Z,118
2023-05-10T08:54:10.764Z,118
2023-05-10T08:55:10.293Z,118
2023-05-10T08:56:10.452Z,118
2023-05-10T08:57:10.592Z,118
2023-05-10T08:58:11.258Z,118
2023-05-10T08:59:10.629Z,118
2023-05-10T09:00:11.057Z,118
2023-05-10T09:01:11.352Z,118
2023-05-10T09:06:10.362Z,118
2023-05-10T09:07:10.913Z,116
2023-05-10T09:08:10.909Z,116
2023-05-10T09:12:10.548Z,116
2023-05-10T09:14:11.073Z,116
2023-05-10T09:15:11.012Z,116
2023-05-10T09:16:27.145Z,116
2023-05-10T09:18:11.246Z,116
2023-05-10T09:19:11.640Z,116
2023-05-10T09:20:10.372Z,116
2023-05-10T09:21:10.206Z,116
2023-05-10T09:22:10.487Z,116
2023-05-10T09:23:10.415Z,116
2023-05-10T09:24:10.955Z,116
2023-05-10T09:25:11.099Z,116
2023-05-10T09:26:10.279Z,116
2023-05-10T09:27:10.935Z,116
2023-05-10T09:28:11.198Z,116
2023-05-10T09:29:11.379Z,116
2023-05-10T09:33:10.349Z,116
2023-05-10T09:34:10.638Z,116
2023-05-10T09:35:11.114Z,116
2023-05-10T09:36:11.286Z,116
2023-05-10T09:40:10.292Z,116
2023-05-10T09:41:10.478Z,116
2023-05-10T09:42:10.945Z,116
2023-05-10T09:43:10.947Z,116
2023-05-10T09:44:10.400Z,116
2023-05-10T09:45:10.539Z,116
2023-05-10T09:46:11.032Z,116
2023-05-10T09:47:11.181Z,116
2023-05-10T09:48:10.771Z,116
2023-05-10T09:50:10.375Z,116
2023-05-10T09:51:10.933Z,116
2023-05-10T09:52:11.474Z,116
2023-05-10T09:53:10.551Z,116
2023-05-10T09:54:10.712Z,116
2023-05-10T09:55:10.614Z,116
2023-05-10T09:56:11.271Z,116
2023-05-10T09:57:10.336Z,116
2023-05-10T09:58:10.834Z,116
2023-05-10T09:59:11.101Z,116
2023-05-10T10:00:10.294Z,116
2023-05-10T10:01:10.711Z,116
2023-05-10T10:02:11.341Z,116
2023-05-10T10:03:11.409Z,116
2023-05-10T10:04:10.430Z,116
2023-05-10T10:05:11.084Z,116
2023-05-10T10:06:29.397Z,116
2023-05-10T10:08:11.143Z,106
2023-05-10T10:09:11.125Z,106
2023-05-10T10:10:10.443Z,106
2023-05-10T10:11:10.630Z,106
2023-05-10T10:12:10.867Z,106
2023-05-10T10:13:11.310Z,106
2023-05-10T10:17:16.493Z,106
2023-05-10T10:18:10.593Z,106
2023-05-10T10:19:11.312Z,106
2023-05-10T10:20:12.588Z,106
2023-05-10T10:23:10.957Z,106
2023-05-10T10:24:11.273Z,106
2023-05-10T10:25:10.735Z,106
2023-05-10T10:26:10.710Z,106
2023-05-10T10:27:10.897Z,106
2023-05-10T10:28:11.097Z,106
2023-05-10T10:29:10.902Z,106
2023-05-10T10:30:11.020Z,106
2023-05-10T10:31:11.421Z,106
2023-05-10T10:33:33.202Z,106
2023-05-10T10:35:11.066Z,106
2023-05-10T10:36:11.261Z,106
2023-05-10T10:37:10.309Z,106
2023-05-10T10:38:10.580Z,106
2023-05-10T10:39:10.962Z,106
2023-05-10T10:40:10.948Z,106
2023-05-10T10:41:10.394Z,106
2023-05-10T10:42:10.716Z,106
2023-05-10T10:45:11.073Z,106
2023-05-10T10:49:10.322Z,106
2023-05-10T10:50:10.882Z,106
2023-05-10T10:51:13.110Z,106
2023-05-10T10:53:11.031Z,106
2023-05-10T10:54:10.916Z,106
2023-05-10T10:56:10.592Z,106
2023-05-10T11:00:10.452Z,106
2023-05-10T11:01:11.046Z,106
2023-05-10T11:02:11.089Z,106
2023-05-10T11:03:11.484Z,106
2023-05-10T11:04:10.797Z,106
2023-05-10T11:05:10.934Z,106
2023-05-10T11:06:11.094Z,106
2023-05-10T11:07:11.272Z,107
2023-05-10T11:08:10.388Z,107
2023-05-10T11:09:10.426Z,107
2023-05-10T11:10:10.124Z,107
2023-05-10T11:11:10.575Z,107
2023-05-10T11:12:10.666Z,107
2023-05-10T11:13:09.912Z,107
2023-05-10T11:14:10.888Z,107
2023-05-10T11:15:11.036Z,107
2023-05-10T11:16:11.056Z,107
2023-05-10T11:17:11.341Z,107
2023-05-10T11:18:10.538Z,107
2023-05-10T11:19:11.292Z,107
2023-05-10T11:20:10.901Z,107
2023-05-10T11:21:11.193Z,107
2023-05-10T11:25:11.218Z,107
2023-05-10T11:27:11.213Z,107
2023-05-10T11:28:10.274Z,107
2023-05-10T11:29:10.533Z,107
2023-05-10T11:30:11.609Z,107
2023-05-10T11:31:11.009Z,107
2023-05-10T11:32:10.864Z,107
2023-05-10T11:33:10.586Z,107
2023-05-10T11:36:10.579Z,107
2023-05-10T11:37:09.535Z,107
2023-05-10T11:38:10.728Z,107
2023-05-10T11:39:10.951Z,107
2023-05-10T11:40:11.354Z,107
2023-05-10T11:41:10.922Z,107
2023-05-10T11:42:11.170Z,107
2023-05-10T11:43:10.381Z,107
2023-05-10T11:44:10.430Z,107
2023-05-10T11:45:10.897Z,107
2023-05-10T11:46:11.293Z,107
2023-05-10T11:47:11.294Z,107
2023-05-10T11:49:10.958Z,107
2023-05-10T11:50:11.092Z,107
2023-05-10T11:51:10.419Z,107
2023-05-10T11:52:10.591Z,107
2023-05-10T11:53:10.963Z,107
2023-05-10T11:54:10.222Z,107
2023-05-10T11:55:10.440Z,107
2023-05-10T11:56:10.739Z,107
2023-05-10T12:00:10.447Z,107
2023-05-10T12:01:10.668Z,107
2023-05-10T12:02:11.168Z,107
2023-05-10T12:03:11.414Z,107
2023-05-10T12:04:10.955Z,107
2023-05-10T12:05:11.137Z,107
2023-05-10T12:08:10.225Z,103
2023-05-10T12:09:10.491Z,103
2023-05-10T12:10:10.893Z,103
2023-05-10T12:13:10.393Z,103
2023-05-10T12:14:10.642Z,103
2023-05-10T12:15:10.682Z,103
2023-05-10T12:16:11.295Z,103
2023-05-10T12:17:10.325Z,103
2023-05-10T12:18:10.612Z,103
2023-05-10T12:19:11.482Z,103
2023-05-10T12:20:10.665Z,103
2023-05-10T12:21:09.473Z,103
2023-05-10T12:22:10.613Z,103
2023-05-10T12:23:10.665Z,103
2023-05-10T12:24:11.015Z,103
2023-05-10T12:25:10.487Z,103
2023-05-10T12:26:10.882Z,103
2023-05-10T12:27:11.180Z,103
2023-05-10T12:28:10.297Z,103
2023-05-10T12:29:10.671Z,103
2023-05-10T12:30:11.047Z,103
2023-05-10T12:31:11.134Z,103
2023-05-10T12:34:10.834Z,103
2023-05-10T12:35:11.164Z,103
2023-05-10T12:36:10.506Z,103
2023-05-10T12:37:10.893Z,103
2023-05-10T12:38:10.950Z,103
2023-05-10T12:39:11.161Z,103
2023-05-10T12:40:10.648Z,103
2023-05-10T12:41:10.370Z,103
2023-05-10T12:42:11.095Z,103
2023-05-10T12:43:10.371Z,103
2023-05-10T12:44:10.104Z,103
2023-05-10T12:45:10.966Z,103
2023-05-10T12:46:11.633Z,103
2023-05-10T12:47:10.522Z,103
2023-05-10T12:48:11.123Z,103
2023-05-10T12:49:18.040Z,103
2023-05-10T12:53:11.020Z,103
2023-05-10T12:55:10.647Z,103
2023-05-10T12:56:10.928Z,103
2023-05-10T12:57:11.122Z,103
2023-05-10T12:58:10.454Z,103
2023-05-10T12:59:10.882Z,103
2023-05-10T13:00:11.222Z,103
2023-05-10T13:01:10.924Z,103
2023-05-10T13:02:10.963Z,103
2023-05-10T13:03:11.554Z,103
2023-05-10T13:04:10.695Z,103
2023-05-10T13:05:10.036Z,103
2023-05-10T13:06:10.701Z,103
2023-05-10T13:07:11.167Z,104
2023-05-10T13:08:10.235Z,104
2023-05-10T13:09:10.606Z,104
2023-05-10T13:10:10.612Z,104
2023-05-10T13:11:10.981Z,104
2023-05-10T13:12:13.706Z,104
2023-05-10T13:14:10.380Z,104
2023-05-10T13:15:10.975Z,104
2023-05-10T13:16:10.296Z,104
2023-05-10T13:17:11.311Z,104
2023-05-10T13:18:11.469Z,104
2023-05-10T13:19:11.730Z,104
2023-05-10T13:20:10.572Z,104
2023-05-10T13:21:10.735Z,104
2023-05-10T13:22:10.794Z,104
2023-05-10T13:23:10.898Z,104
2023-05-10T13:24:10.504Z,104
2023-05-10T13:25:10.605Z,104
2023-05-10T13:26:10.620Z,104
2023-05-10T13:27:10.933Z,104
2023-05-10T13:28:11.060Z,104
2023-05-10T13:29:10.438Z,104
2023-05-10T13:30:11.306Z,104
2023-05-10T13:31:10.501Z,104
2023-05-10T13:32:10.676Z,104
2023-05-10T13:33:11.195Z,104
2023-05-10T13:34:10.019Z,104
2023-05-10T13:35:10.552Z,104
2023-05-10T13:36:10.659Z,104
2023-05-10T13:37:10.973Z,104
2023-05-10T13:38:11.354Z,104
2023-05-10T13:40:10.628Z,104
2023-05-10T13:41:10.983Z,104
2023-05-10T13:42:11.243Z,104
2023-05-10T13:43:10.772Z,104
2023-05-10T13:44:10.991Z,104
2023-05-10T13:45:11.350Z,104
2023-05-10T13:46:11.363Z,104
2023-05-10T13:47:10.369Z,104
2023-05-10T13:48:11.086Z,104
2023-05-10T13:49:10.971Z,104
2023-05-10T13:50:11.361Z,104
2023-05-10T13:52:09.894Z,104
2023-05-10T13:53:11.276Z,104
2023-05-10T13:54:12.037Z,104
2023-05-10T13:55:09.522Z,104
2023-05-10T13:56:10.798Z,104
2023-05-10T13:57:10.772Z,104
2023-05-10T13:58:10.295Z,104
2023-05-10T13:59:10.500Z,104
2023-05-10T14:00:10.975Z,104
2023-05-10T14:01:10.625Z,104
2023-05-10T14:02:11.048Z,104
2023-05-10T14:03:11.445Z,104
2023-05-10T14:04:10.461Z,104
2023-05-10T14:05:10.519Z,104
2023-05-10T14:06:10.737Z,104
2023-05-10T14:07:11.088Z,101
2023-05-10T14:08:10.395Z,101
2023-05-10T14:09:10.664Z,101
2023-05-10T14:10:10.758Z,101
2023-05-10T14:11:10.634Z,101
2023-05-10T14:12:10.081Z,101
2023-05-10T14:13:10.351Z,101
2023-05-10T14:14:10.727Z,101
2023-05-10T14:17:14.159Z,101
2023-05-10T14:18:10.608Z,101
2023-05-10T14:19:11.535Z,101
2023-05-10T14:20:11.068Z,101
2023-05-10T14:21:10.436Z,101
2023-05-10T14:22:10.638Z,101
2023-05-10T14:23:13.988Z,101
2023-05-10T14:25:10.313Z,101
2023-05-10T14:26:10.942Z,101
2023-05-10T14:27:10.971Z,101
2023-05-10T14:29:13.706Z,101
2023-05-10T14:31:10.265Z,101
2023-05-10T14:32:10.906Z,101
2023-05-10T14:33:11.089Z,101
2023-05-10T14:34:11.184Z,101
2023-05-10T14:35:13.167Z,101
2023-05-10T14:36:09.743Z,101
2023-05-10T14:37:10.779Z,101
2023-05-10T14:38:10.941Z,101
2023-05-10T14:39:11.242Z,101
2023-05-10T14:40:10.981Z,101
2023-05-10T14:41:11.957Z,101
2023-05-10T14:42:10.229Z,101
2023-05-10T14:43:10.690Z,101
2023-05-10T14:46:11.334Z,101
2023-05-10T14:47:12.673Z,101
2023-05-10T14:49:10.696Z,101
2023-05-10T14:50:13.285Z,101
2023-05-10T14:51:11.106Z,101
2023-05-10T14:52:10.529Z,101
2023-05-10T14:53:10.780Z,101
2023-05-10T14:54:10.998Z,101
2023-05-10T14:59:11.768Z,101
2023-05-10T15:02:11.668Z,101
2023-05-10T15:03:13.173Z,101
2023-05-10T15:04:12.343Z,101
2023-05-10T15:05:13.145Z,101
2023-05-10T15:06:10.772Z,101
2023-05-10T15:07:10.966Z,105
2023-05-10T15:08:11.249Z,105
2023-05-10T15:09:10.345Z,105
2023-05-10T15:10:10.749Z,105
2023-05-10T15:11:11.027Z,105
2023-05-10T15:12:11.323Z,105
2023-05-10T15:13:10.611Z,105
2023-05-10T15:14:10.896Z,105
2023-05-10T15:15:11.064Z,105
2023-05-10T15:16:10.504Z,105
2023-05-10T15:17:10.724Z,105
2023-05-10T15:18:11.288Z,105
2023-05-10T15:19:11.052Z,105
2023-05-10T15:22:10.238Z,105
2023-05-10T15:23:09.873Z,105
2023-05-10T15:24:11.259Z,105
2023-05-10T15:25:10.245Z,105
2023-05-10T15:26:10.781Z,105
2023-05-10T15:27:10.978Z,105
2023-05-10T15:28:11.380Z,105
2023-05-10T15:29:10.487Z,105
2023-05-10T15:30:10.990Z,105
2023-05-10T15:31:11.372Z,105
2023-05-10T15:32:10.513Z,105
2023-05-10T15:33:11.062Z,105
2023-05-10T15:34:10.791Z,105
2023-05-10T15:35:10.376Z,105
2023-05-10T15:36:10.500Z,105
2023-05-10T15:37:10.883Z,105
2023-05-10T15:38:10.975Z,105
2023-05-10T15:39:11.329Z,105
2023-05-10T15:43:10.629Z,105
2023-05-10T15:44:10.658Z,105
2023-05-10T15:45:11.104Z,105
2023-05-10T15:46:11.406Z,105
2023-05-10T15:47:09.617Z,105
2023-05-10T15:48:10.666Z,105
2023-05-10T15:49:10.697Z,105
2023-05-10T15:50:11.218Z,105
2023-05-10T15:51:10.550Z,105
2023-05-10T15:52:10.696Z,105
2023-05-10T15:53:11.322Z,105
2023-05-10T15:54:12.346Z,105
2023-05-10T15:55:10.888Z,105
2023-05-10T15:58:10.339Z,105
2023-05-10T15:59:10.810Z,105
2023-05-10T16:00:10.919Z,105
2023-05-10T16:01:10.807Z,105
2023-05-10T16:02:11.085Z,105
2023-05-10T16:03:11.471Z,105
2023-05-10T16:04:10.163Z,105
2023-05-10T16:05:10.912Z,105
2023-05-10T16:06:11.021Z,105
2023-05-10T16:07:10.010Z,108
2023-05-10T16:08:11.044Z,108
2023-05-10T16:09:10.999Z,108
2023-05-10T16:10:11.592Z,108
2023-05-10T16:14:13.111Z,108
2023-05-10T16:15:10.755Z,108
2023-05-10T16:16:11.124Z,108
2023-05-10T16:17:12.338Z,108
2023-05-10T16:22:10.416Z,108
2023-05-10T16:23:10.602Z,108
2023-05-10T16:24:11.078Z,108
2023-05-10T16:25:12.153Z,108
2023-05-10T16:26:10.586Z,108
2023-05-10T16:27:10.504Z,108
2023-05-10T16:28:10.831Z,108
2023-05-10T16:29:11.264Z,108
2023-05-10T16:30:10.310Z,108
2023-05-10T16:31:10.434Z,108
2023-05-10T16:32:10.778Z,108
2023-05-10T16:33:11.512Z,108
2023-05-10T16:34:10.399Z,108
2023-05-10T16:35:10.470Z,108
2023-05-10T16:36:10.767Z,108
2023-05-10T16:42:11.073Z,108
2023-05-10T16:43:10.506Z,108
2023-05-10T16:44:10.974Z,108
2023-05-10T16:45:10.970Z,108
2023-05-10T16:46:11.459Z,108
2023-05-10T16:49:10.664Z,108
2023-05-10T16:50:11.289Z,108
2023-05-10T16:51:10.516Z,108
2023-05-10T16:52:10.897Z,108
2023-05-10T16:53:10.916Z,108
2023-05-10T16:54:10.951Z,108
2023-05-10T16:55:11.279Z,108
2023-05-10T16:56:10.899Z,108
2023-05-10T16:57:11.172Z,108
2023-05-10T16:58:10.452Z,108
2023-05-10T16:59:10.703Z,108
2023-05-10T17:00:11.040Z,108
2023-05-10T17:01:10.464Z,108
2023-05-10T17:02:11.014Z,108